Time;durP1;ratioP1;P1;durP2;ratioP2;P2;SDS_P1;SDS_P2;PMS_P1;PMS_P2;Temp;Humidity;BMP_temperature;BMP_pressure;BME280_temperature;BME280_humidity;BME280_pressure;Samples;Min_cycle;Max_cycle;Signal;HPM_P1;HPM_P2
2022/09/19 00:02:02;;;;;;;1999.90;999.90;;;;;;;-144.65;100.00;64500.88;5022485;28;20045;-76
2022/09/19 00:04:31;;;;;;;1999.90;999.90;;;;;;;-144.65;100.00;64500.88;5009582;28;20089;-77
2022/09/19 00:06:57;;;;;;;1999.90;999.90;;;;;;;-144.65;100.00;64500.88;5016994;28;20041;-76
2022/09/19 00:09:25;;;;;;;1999.90;999.90;;;;;;;-144.65;100.00;64500.88;4997961;28;20469;-76
2022/09/19 00:11:52;;;;;;;1999.90;999.90;;;;;;;-144.65;100.00;64500.88;5019445;28;20084;-77
2022/09/19 00:14:23;;;;;;;1999.90;999.90;;;;;;;-144.65;100.00;64500.88;5021721;28;20057;-77
2022/09/19 00:16:49;;;;;;;1999.90;999.90;;;;;;;-144.65;100.00;64500.88;5002701;28;20021;-76
2022/09/19 00:19:17;;;;;;;1999.90;999.90;;;;;;;-144.65;100.00;64500.88;5000921;28;20028;-76
2022/09/19 00:21:45;;;;;;;1999.90;999.90;;;;;;;-144.65;100.00;64500.88;4997969;28;20025;-76
2022/09/19 00:26:58;;;;;;;1999.90;999.90;;;;;;;-144.65;100.00;64500.88;5018169;28;20033;-76
2022/09/19 00:29:27;;;;;;;1999.90;999.90;;;;;;;-144.65;100.00;64500.88;5003064;28;20448;-76
2022/09/19 00:31:52;;;;;;;1999.90;999.90;;;;;;;-144.65;100.00;64500.88;5024045;28;20030;-76
2022/09/19 00:34:18;;;;;;;1999.90;999.90;;;;;;;-144.65;100.00;64500.88;5018092;28;20024;-76
2022/09/19 00:36:44;;;;;;;1999.90;999.90;;;;;;;-144.65;100.00;64500.88;5018834;28;20037;-76
2022/09/19 00:39:12;;;;;;;1999.90;999.90;;;;;;;-144.65;100.00;64500.88;5019511;28;20032;-76
2022/09/19 00:41:37;;;;;;;1999.90;999.90;;;;;;;-144.65;100.00;64500.88;5016227;28;20072;-76
2022/09/19 00:44:22;;;;;;;1999.90;999.90;;;;;;;-144.65;100.00;64500.88;5015648;28;20033;-77
2022/09/19 00:47:05;;;;;;;1999.90;999.90;;;;;;;-144.65;100.00;64500.88;5010969;28;20096;-75
2022/09/19 00:49:37;;;;;;;1999.90;999.90;;;;;;;-144.65;100.00;64500.88;5011449;28;20026;-76
2022/09/19 00:52:07;;;;;;;1999.90;999.90;;;;;;;-144.65;100.00;64500.88;5011585;28;20056;-76
2022/09/19 00:54:44;;;;;;;1999.90;999.90;;;;;;;-144.65;100.00;64500.88;5011206;28;20020;-76
2022/09/19 00:57:14;;;;;;;1999.90;999.90;;;;;;;-144.65;100.00;64500.88;5011489;28;20841;-75
2022/09/19 00:59:43;;;;;;;1999.90;999.90;;;;;;;-144.65;100.00;64500.88;5011521;28;20109;-76
2022/09/19 01:02:09;;;;;;;1999.90;999.90;;;;;;;-144.65;100.00;64500.88;5012764;28;20546;-75
2022/09/19 01:04:35;;;;;;;1999.90;999.90;;;;;;;-144.65;100.00;64500.88;5011781;28;20120;-76
2022/09/19 01:07:14;;;;;;;1999.90;999.90;;;;;;;-144.65;100.00;64500.88;4993802;28;20030;-76
2022/09/19 01:10:08;;;;;;;1999.90;999.90;;;;;;;-144.65;100.00;64500.88;4993002;28;20109;-75
2022/09/19 01:12:38;;;;;;;1999.90;999.90;;;;;;;-144.65;100.00;64500.88;5011055;28;20022;-75
2022/09/19 01:15:19;;;;;;;1999.90;999.90;;;;;;;-144.65;100.00;64500.88;5010819;28;20025;-76
2022/09/19 01:17:52;;;;;;;1999.90;999.90;;;;;;;-144.65;100.00;64500.88;5010642;28;20034;-75
2022/09/19 01:20:46;;;;;;;1999.90;999.90;;;;;;;-144.65;100.00;64500.88;5010921;28;20030;-75
2022/09/19 01:23:33;;;;;;;1999.90;999.90;;;;;;;-144.65;100.00;64500.88;5010640;28;20391;-76
2022/09/19 01:26:21;;;;;;;1999.90;999.90;;;;;;;-144.65;100.00;64500.88;5010299;28;20109;-75
2022/09/19 01:28:59;;;;;;;1999.90;999.90;;;;;;;-144.65;100.00;64500.88;5010531;28;20114;-76
2022/09/19 01:31:35;;;;;;;1999.90;999.90;;;;;;;-144.65;100.00;64500.88;5010743;28;20037;-75
2022/09/19 01:34:25;;;;;;;1999.90;999.90;;;;;;;-144.65;100.00;64500.88;5010533;28;20014;-76
2022/09/19 01:37:03;;;;;;;1999.90;999.90;;;;;;;-144.65;100.00;64500.88;5010839;28;20487;-75
2022/09/19 01:39:31;;;;;;;1999.90;999.90;;;;;;;-144.65;100.00;64500.88;5010285;28;20029;-76
2022/09/19 01:41:59;;;;;;;1999.90;999.90;;;;;;;-144.65;100.00;64500.88;5010673;28;20030;-75
2022/09/19 01:44:26;;;;;;;1999.90;999.90;;;;;;;-144.65;100.00;64500.88;4992259;28;20030;-76
2022/09/19 01:47:24;;;;;;;1999.90;999.90;;;;;;;-144.65;100.00;64500.88;5010536;28;20053;-75
2022/09/19 01:50:25;;;;;;;1999.90;999.90;;;;;;;-144.65;100.00;64500.88;5022911;28;20037;-76
2022/09/19 01:53:07;;;;;;;1999.90;999.90;;;;;;;-144.65;100.00;64500.88;4998324;28;20381;-76
2022/09/19 01:56:05;;;;;;;1999.90;999.90;;;;;;;-144.65;100.00;64500.88;4994114;28;20027;-76
2022/09/19 01:58:42;;;;;;;1999.90;999.90;;;;;;;-144.65;100.00;64500.88;4994193;28;20039;-77
2022/09/19 02:01:27;;;;;;;1999.90;999.90;;;;;;;-144.65;100.00;64500.88;4994178;28;20487;-75
2022/09/19 02:04:06;;;;;;;1999.90;999.90;;;;;;;-144.65;100.00;64500.88;4993569;28;20027;-75
2022/09/19 02:06:46;;;;;;;1999.90;999.90;;;;;;;-144.65;100.00;64500.88;4993759;28;20034;-75
2022/09/19 02:09:48;;;;;;;1999.90;999.90;;;;;;;-144.65;100.00;64500.88;4993835;28;20393;-76
2022/09/19 02:12:17;;;;;;;1999.90;999.90;;;;;;;-144.65;100.00;64500.88;4994139;28;20080;-76
2022/09/19 02:14:52;;;;;;;1999.90;999.90;;;;;;;-144.65;100.00;64500.88;4993417;28;20034;-75
2022/09/19 02:17:24;;;;;;;1999.90;999.90;;;;;;;-144.65;100.00;64500.88;4993693;28;20042;-76
2022/09/19 02:20:02;;;;;;;1999.90;999.90;;;;;;;-144.65;100.00;64500.88;4993032;28;20030;-75
2022/09/19 02:22:32;;;;;;;1999.90;999.90;;;;;;;-144.65;100.00;64500.88;4993297;28;20053;-75
2022/09/19 02:25:00;;;;;;;1999.90;999.90;;;;;;;-144.65;100.00;64500.88;4993372;28;20041;-76
2022/09/19 02:27:32;;;;;;;1999.90;999.90;;;;;;;-144.65;100.00;64500.88;4992734;28;20475;-75
2022/09/19 02:30:05;;;;;;;1999.90;999.90;;;;;;;-144.65;100.00;64500.88;4993336;28;20045;-76
2022/09/19 02:32:31;;;;;;;1999.90;999.90;;;;;;;-144.65;100.00;64500.88;4993549;28;20030;-76
2022/09/19 02:34:56;;;;;;;1999.90;999.90;;;;;;;-144.65;100.00;64500.88;4994498;28;20026;-76
2022/09/19 02:37:41;;;;;;;1999.90;999.90;;;;;;;-144.65;100.00;64500.88;4993432;28;20105;-76
2022/09/19 02:40:28;;;;;;;1999.90;999.90;;;;;;;-144.65;100.00;64500.88;4994094;28;20391;-75
2022/09/19 02:43:14;;;;;;;1999.90;999.90;;;;;;;-144.65;100.00;64500.88;4995076;28;20064;-74
2022/09/19 02:45:46;;;;;;;1999.90;999.90;;;;;;;-144.65;100.00;64500.88;4994588;28;20027;-75
2022/09/19 02:48:19;;;;;;;1999.90;999.90;;;;;;;-144.65;100.00;64500.88;4994217;28;20419;-74
2022/09/19 02:51:00;;;;;;;1999.90;999.90;;;;;;;-144.65;100.00;64500.88;4993476;28;20046;-76
2022/09/19 02:53:33;;;;;;;1999.90;999.90;;;;;;;-144.65;100.00;64500.88;4993565;28;20109;-76
2022/09/19 02:56:02;;;;;;;1999.90;999.90;;;;;;;-144.65;100.00;64500.88;4992833;28;20084;-76
2022/09/19 02:58:38;;;;;;;1999.90;999.90;;;;;;;-144.65;100.00;64500.88;4993070;28;20398;-76
2022/09/19 03:01:09;;;;;;;1999.90;999.90;;;;;;;-144.65;100.00;64500.88;4974162;28;20038;-76
2022/09/19 03:06:32;;;;;;;1999.90;999.90;;;;;;;-144.65;100.00;64500.88;4993432;28;20526;-75
2022/09/19 03:09:00;;;;;;;1999.90;999.90;;;;;;;-144.65;100.00;64500.88;4992760;28;20089;-75
2022/09/19 03:11:28;;;;;;;1999.90;999.90;;;;;;;-144.65;100.00;64500.88;4993330;28;20034;-75
2022/09/19 03:13:56;;;;;;;1999.90;999.90;;;;;;;-144.65;100.00;64500.88;4993017;28;20038;-76
2022/09/19 03:16:27;;;;;;;1999.90;999.90;;;;;;;-144.65;100.00;64500.88;4992845;28;20475;-75
2022/09/19 03:18:57;;;;;;;1999.90;999.90;;;;;;;-144.65;100.00;64500.88;4992614;28;20038;-75
2022/09/19 03:21:24;;;;;;;1999.90;999.90;;;;;;;-144.65;100.00;64500.88;4975641;28;20089;-76
2022/09/19 03:23:56;;;;;;;1999.90;999.90;;;;;;;-144.65;100.00;64500.88;4992696;28;20375;-76
2022/09/19 03:26:30;;;;;;;1999.90;999.90;;;;;;;-144.65;100.00;64500.88;4992781;28;20061;-76
2022/09/19 03:28:55;;;;;;;1999.90;999.90;;;;;;;-144.65;100.00;64500.88;4974885;28;20014;-75
2022/09/19 03:31:22;;;;;;;1999.90;999.90;;;;;;;-144.65;100.00;64500.88;4992563;28;20034;-75
2022/09/19 03:33:49;;;;;;;1999.90;999.90;;;;;;;-144.65;100.00;64500.88;4992407;28;20026;-74
2022/09/19 03:36:15;;;;;;;1999.90;999.90;;;;;;;-144.65;100.00;64500.88;4992262;28;20046;-75
2022/09/19 03:38:45;;;;;;;1999.90;999.90;;;;;;;-144.65;100.00;64500.88;4991925;28;20058;-75
2022/09/19 03:41:12;;;;;;;1999.90;999.90;;;;;;;-144.65;100.00;64500.88;4992889;28;20030;-76
2022/09/19 03:43:37;;;;;;;1999.90;999.90;;;;;;;-144.65;100.00;64500.88;5000615;28;20037;-75
2022/09/19 03:46:02;;;;;;;1999.90;999.90;;;;;;;-144.65;100.00;64500.88;4992020;28;20475;-75
2022/09/19 03:48:30;;;;;;;1999.90;999.90;;;;;;;-144.65;100.00;64500.88;4974738;28;20033;-76
2022/09/19 03:50:55;;;;;;;1999.90;999.90;;;;;;;-144.65;100.00;64500.88;4992421;28;20083;-75
2022/09/19 03:53:21;;;;;;;1999.90;999.90;;;;;;;-144.65;100.00;64500.88;4992101;28;20030;-76
2022/09/19 03:55:46;;;;;;;1999.90;999.90;;;;;;;-144.65;100.00;64500.88;4992324;28;20177;-75
2022/09/19 03:58:12;;;;;;;1999.90;999.90;;;;;;;-144.65;100.00;64500.88;4992044;28;20050;-75
2022/09/19 04:00:38;;;;;;;1999.90;999.90;;;;;;;-144.65;100.00;64500.88;4974969;28;20030;-75
2022/09/19 04:03:04;;;;;;;1999.90;999.90;;;;;;;-144.65;100.00;64500.88;4992954;28;20519;-76
2022/09/19 04:05:32;;;;;;;1999.90;999.90;;;;;;;-144.65;100.00;64500.88;4976384;28;20040;-75
2022/09/19 04:07:57;;;;;;;1999.90;999.90;;;;;;;-144.65;100.00;64500.88;4972434;28;20046;-75
2022/09/19 04:10:23;;;;;;;1999.90;999.90;;;;;;;-144.65;100.00;64500.88;4973336;28;20034;-75
2022/09/19 04:12:48;;;;;;;1999.90;999.90;;;;;;;-144.65;100.00;64500.88;4955089;28;20038;-75
2022/09/19 04:15:14;;;;;;;1999.90;999.90;;;;;;;-144.65;100.00;64500.88;4972534;28;20053;-75
2022/09/19 04:17:40;;;;;;;1999.90;999.90;;;;;;;-144.65;100.00;64500.88;4972250;28;20030;-75
2022/09/19 04:20:05;;;;;;;1999.90;999.90;;;;;;;-144.65;100.00;64500.88;4955047;28;20037;-75
2022/09/19 04:22:31;;;;;;;1999.90;999.90;;;;;;;-144.65;100.00;64500.88;4972401;28;20123;-75
2022/09/19 04:24:56;;;;;;;1999.90;999.90;;;;;;;-144.65;100.00;64500.88;4972260;28;20037;-77
2022/09/19 04:27:21;;;;;;;1999.90;999.90;;;;;;;-144.65;100.00;64500.88;4972302;28;20113;-75
2022/09/19 04:29:47;;;;;;;1999.90;999.90;;;;;;;-144.65;100.00;64500.88;4971873;28;20025;-75
2022/09/19 04:32:15;;;;;;;1999.90;999.90;;;;;;;-144.65;100.00;64500.88;4972019;28;20058;-76
2022/09/19 04:34:43;;;;;;;1999.90;999.90;;;;;;;-144.65;100.00;64500.88;4971995;28;20015;-75
2022/09/19 04:37:10;;;;;;;1999.90;999.90;;;;;;;-144.65;100.00;64500.88;4971978;28;20031;-75
2022/09/19 04:39:35;;;;;;;1999.90;999.90;;;;;;;-144.65;100.00;64500.88;4972191;28;20133;-75
2022/09/19 04:42:02;;;;;;;1999.90;999.90;;;;;;;-144.65;100.00;64500.88;4972533;28;20051;-76
2022/09/19 04:44:29;;;;;;;1999.90;999.90;;;;;;;-144.65;100.00;64500.88;4971749;28;20085;-75
2022/09/19 04:46:57;;;;;;;1999.90;999.90;;;;;;;-144.65;100.00;64500.88;4971657;28;20023;-75
2022/09/19 04:49:22;;;;;;;1999.90;999.90;;;;;;;-144.65;100.00;64500.88;4972016;28;20140;-75
2022/09/19 04:51:48;;;;;;;1999.90;999.90;;;;;;;-144.65;100.00;64500.88;4972563;28;20469;-76
2022/09/19 04:54:14;;;;;;;1999.90;999.90;;;;;;;-144.65;100.00;64500.88;4955222;28;20038;-75
2022/09/19 04:56:44;;;;;;;1999.90;999.90;;;;;;;-144.65;100.00;64500.88;4971803;28;20033;-76
2022/09/19 04:59:10;;;;;;;1999.90;999.90;;;;;;;-144.65;100.00;64500.88;4971788;28;20046;-75
2022/09/19 05:01:36;;;;;;;1999.90;999.90;;;;;;;-144.65;100.00;64500.88;4971878;28;20030;-75
2022/09/19 05:04:03;;;;;;;1999.90;999.90;;;;;;;-144.65;100.00;64500.88;4971882;28;20027;-76
2022/09/19 05:06:29;;;;;;;1999.90;999.90;;;;;;;-144.65;100.00;64500.88;4971962;28;20118;-75
2022/09/19 05:08:55;;;;;;;1999.90;999.90;;;;;;;-144.65;100.00;64500.88;4982991;28;20129;-76
2022/09/19 05:11:21;;;;;;;1999.90;999.90;;;;;;;-144.65;100.00;64500.88;4991504;28;20034;-75
2022/09/19 05:13:48;;;;;;;1999.90;999.90;;;;;;;-144.65;100.00;64500.88;4992670;28;20506;-76
2022/09/19 05:16:14;;;;;;;1999.90;999.90;;;;;;;-144.65;100.00;64500.88;4991911;28;20057;-75
2022/09/19 05:18:39;;;;;;;1999.90;999.90;;;;;;;-144.65;100.00;64500.88;5005464;28;20128;-75
2022/09/19 05:21:11;;;;;;;1999.90;999.90;;;;;;;-144.65;100.00;64500.88;4996466;28;20138;-76
2022/09/19 05:23:38;;;;;;;1999.90;999.90;;;;;;;-144.65;100.00;64500.88;5011949;28;20028;-76
2022/09/19 05:26:09;;;;;;;1999.90;999.90;;;;;;;-144.65;100.00;64500.88;5004705;28;20061;-75
2022/09/19 05:28:36;;;;;;;1999.90;999.90;;;;;;;-144.65;100.00;64500.88;4995735;28;20041;-76
2022/09/19 05:31:05;;;;;;;1999.90;999.90;;;;;;;-144.65;100.00;64500.88;4996725;28;20018;-75
2022/09/19 05:33:33;;;;;;;1999.90;999.90;;;;;;;-144.65;100.00;64500.88;5004018;28;20563;-78
2022/09/19 05:36:00;;;;;;;1999.90;999.90;;;;;;;-144.65;100.00;64500.88;5010193;28;20038;-78
2022/09/19 05:38:27;;;;;;;1999.90;999.90;;;;;;;-144.65;100.00;64500.88;5020937;28;20018;-78
2022/09/19 05:40:58;;;;;;;1999.90;999.90;;;;;;;-144.65;100.00;64500.88;5019721;28;20050;-78
2022/09/19 05:43:24;;;;;;;1999.90;999.90;;;;;;;-144.65;100.00;64500.88;5020365;28;20038;-77
2022/09/19 05:45:51;;;;;;;1999.90;999.90;;;;;;;-144.65;100.00;64500.88;5021376;28;20054;-77
2022/09/19 05:48:16;;;;;;;1999.90;999.90;;;;;;;-144.65;100.00;64500.88;5021389;28;20094;-78
2022/09/19 05:50:43;;;;;;;1999.90;999.90;;;;;;;-144.65;100.00;64500.88;5004602;28;20025;-78
2022/09/19 05:56:04;;;;;;;1999.90;999.90;;;;;;;-144.65;100.00;64500.88;4998332;28;20049;-78
2022/09/19 05:58:29;;;;;;;1999.90;999.90;;;;;;;-144.65;100.00;64500.88;5020866;28;20018;-78
2022/09/19 06:00:55;;;;;;;1999.90;999.90;;;;;;;-144.65;100.00;64500.88;4997839;28;20387;-75
2022/09/19 06:03:21;;;;;;;1999.90;999.90;;;;;;;-144.65;100.00;64500.88;4993655;28;20037;-75
2022/09/19 06:05:51;;;;;;;1999.90;999.90;;;;;;;-144.65;100.00;64500.88;4993719;28;20026;-74
2022/09/19 06:08:21;;;;;;;1999.90;999.90;;;;;;;-144.65;100.00;64500.88;4993453;28;20050;-74
2022/09/19 06:10:47;;;;;;;1999.90;999.90;;;;;;;-144.65;100.00;64500.88;4993725;28;20830;-74
2022/09/19 06:13:14;;;;;;;1999.90;999.90;;;;;;;-144.65;100.00;64500.88;4994160;28;20121;-74
2022/09/19 06:15:40;;;;;;;1999.90;999.90;;;;;;;-144.65;100.00;64500.88;5010772;28;20545;-74
2022/09/19 06:18:06;;;;;;;1999.90;999.90;;;;;;;-144.65;100.00;64500.88;5013311;28;20034;-74
2022/09/19 06:20:32;;;;;;;1999.90;999.90;;;;;;;-144.65;100.00;64500.88;5013327;28;20026;-74
2022/09/19 06:23:01;;;;;;;1999.90;999.90;;;;;;;-144.65;100.00;64500.88;5013066;28;20456;-74
2022/09/19 06:25:28;;;;;;;1999.90;999.90;;;;;;;-144.65;100.00;64500.88;5013780;28;20025;-74
2022/09/19 06:27:55;;;;;;;1999.90;999.90;;;;;;;-144.65;100.00;64500.88;5012737;28;20478;-73
2022/09/19 06:30:22;;;;;;;1999.90;999.90;;;;;;;-144.65;100.00;64500.88;5012950;28;20033;-73
2022/09/19 06:32:47;;;;;;;1999.90;999.90;;;;;;;-144.65;100.00;64500.88;5012919;28;20065;-74
2022/09/19 06:35:13;;;;;;;1999.90;999.90;;;;;;;-144.65;100.00;64500.88;5012401;28;20045;-73
2022/09/19 06:37:38;;;;;;;1999.90;999.90;;;;;;;-144.65;100.00;64500.88;5012698;28;20026;-73
2022/09/19 06:40:04;;;;;;;1999.90;999.90;;;;;;;-144.65;100.00;64500.88;5012805;28;20034;-73
2022/09/19 06:42:29;;;;;;;1999.90;999.90;;;;;;;-144.65;100.00;64500.88;5012205;28;20030;-74
2022/09/19 06:44:54;;;;;;;1999.90;999.90;;;;;;;-144.65;100.00;64500.88;5012556;28;20113;-74
2022/09/19 06:47:20;;;;;;;1999.90;999.90;;;;;;;-144.65;100.00;64500.88;5012786;28;20141;-74
2022/09/19 06:49:45;;;;;;;1999.90;999.90;;;;;;;-144.65;100.00;64500.88;5012746;28;20474;-74
2022/09/19 06:52:10;;;;;;;1999.90;999.90;;;;;;;-144.65;100.00;64500.88;5012988;28;20036;-74
2022/09/19 06:54:36;;;;;;;1999.90;999.90;;;;;;;-144.65;100.00;64500.88;5012967;28;20036;-73
2022/09/19 06:57:01;;;;;;;1999.90;999.90;;;;;;;-144.65;100.00;64500.88;5012604;28;20050;-74
2022/09/19 06:59:27;;;;;;;1999.90;999.90;;;;;;;-144.65;100.00;64500.88;5012415;28;20109;-74
2022/09/19 07:01:53;;;;;;;1999.90;999.90;;;;;;;-144.65;100.00;64500.88;5011717;28;20441;-74
2022/09/19 07:04:18;;;;;;;1999.90;999.90;;;;;;;-144.65;100.00;64500.88;5013026;28;20084;-75
2022/09/19 07:06:44;;;;;;;1999.90;999.90;;;;;;;-144.65;100.00;64500.88;5012577;28;20022;-74
2022/09/19 07:09:10;;;;;;;1999.90;999.90;;;;;;;-144.65;100.00;64500.88;4994980;28;20129;-74
2022/09/19 07:11:36;;;;;;;1999.90;999.90;;;;;;;-144.65;100.00;64500.88;5012945;28;20033;-74
2022/09/19 07:14:02;;;;;;;1999.90;999.90;;;;;;;-144.65;100.00;64500.88;4995415;28;20113;-74
2022/09/19 07:16:29;;;;;;;1999.90;999.90;;;;;;;-144.65;100.00;64500.88;5012519;28;20036;-75
2022/09/19 07:18:54;;;;;;;1999.90;999.90;;;;;;;-144.65;100.00;64500.88;5011849;28;20029;-75
2022/09/19 07:21:20;;;;;;;1999.90;999.90;;;;;;;-144.65;100.00;64500.88;5012078;28;20395;-75
2022/09/19 07:23:47;;;;;;;1999.90;999.90;;;;;;;-144.65;100.00;64500.88;5012675;28;20030;-75
2022/09/19 07:26:15;;;;;;;1999.90;999.90;;;;;;;-144.65;100.00;64500.88;5016171;28;20074;-76
2022/09/19 07:28:41;;;;;;;1999.90;999.90;;;;;;;-144.65;100.00;64500.88;5012102;28;20033;-75
2022/09/19 07:31:08;;;;;;;1999.90;999.90;;;;;;;-144.65;100.00;64500.88;5011835;28;20038;-74
2022/09/19 07:33:33;;;;;;;1999.90;999.90;;;;;;;-144.65;100.00;64500.88;5011756;28;20076;-74
2022/09/19 07:35:59;;;;;;;1999.90;999.90;;;;;;;-144.65;100.00;64500.88;5012035;28;20022;-74
2022/09/19 07:38:27;;;;;;;1999.90;999.90;;;;;;;-144.65;100.00;64500.88;5011696;28;20030;-74
2022/09/19 07:40:53;;;;;;;1999.90;999.90;;;;;;;-144.65;100.00;64500.88;5012021;28;20097;-74
2022/09/19 07:43:19;;;;;;;1999.90;999.90;;;;;;;-144.65;100.00;64500.88;5012226;28;20022;-74
2022/09/19 07:45:46;;;;;;;1999.90;999.90;;;;;;;-144.65;100.00;64500.88;5011215;28;20483;-74
2022/09/19 07:48:12;;;;;;;1999.90;999.90;;;;;;;-144.65;100.00;64500.88;5011655;28;20487;-74
2022/09/19 07:50:38;;;;;;;1999.90;999.90;;;;;;;-144.65;100.00;64500.88;5010808;28;20018;-73
2022/09/19 07:53:12;;;;;;;1999.90;999.90;;;;;;;-144.65;100.00;64500.88;5011799;28;20453;-74
2022/09/19 07:55:37;;;;;;;1999.90;999.90;;;;;;;-144.65;100.00;64500.88;4994055;28;20132;-74
2022/09/19 07:58:04;;;;;;;1999.90;999.90;;;;;;;-144.65;100.00;64500.88;5011656;28;20490;-75
2022/09/19 08:00:31;;;;;;;1999.90;999.90;;;;;;;-144.65;100.00;64500.88;5011895;28;20497;-74
2022/09/19 08:02:59;;;;;;;1999.90;999.90;;;;;;;-144.65;100.00;64500.88;4993815;28;20058;-74
2022/09/19 08:05:27;;;;;;;1999.90;999.90;;;;;;;-144.65;100.00;64500.88;5011389;28;20057;-74
2022/09/19 08:07:54;;;;;;;1999.90;999.90;;;;;;;-144.65;100.00;64500.88;5011072;28;20049;-74
2022/09/19 08:10:20;;;;;;;1999.90;999.90;;;;;;;-144.65;100.00;64500.88;5011231;28;20026;-74
2022/09/19 08:12:47;;;;;;;1999.90;999.90;;;;;;;-144.65;100.00;64500.88;5011318;28;20418;-74
2022/09/19 08:15:16;;;;;;;1999.90;999.90;;;;;;;-144.65;100.00;64500.88;4993367;28;20048;-74
2022/09/19 08:17:58;;;;;;;1999.90;999.90;;;;;;;-144.65;100.00;64500.88;5010868;28;20034;-74
2022/09/19 08:20:25;;;;;;;1999.90;999.90;;;;;;;-144.65;100.00;64500.88;5011096;28;20430;-74
2022/09/19 08:22:58;;;;;;;1999.90;999.90;;;;;;;-144.65;100.00;64500.88;5011234;28;20118;-74
2022/09/19 08:25:27;;;;;;;1999.90;999.90;;;;;;;-144.65;100.00;64500.88;5010902;28;20109;-74
2022/09/19 08:27:55;;;;;;;1999.90;999.90;;;;;;;-144.65;100.00;64500.88;5010894;28;20065;-74
2022/09/19 08:30:21;;;;;;;1999.90;999.90;;;;;;;-144.65;100.00;64500.88;5010953;28;20427;-75
2022/09/19 08:32:49;;;;;;;1999.90;999.90;;;;;;;-144.65;100.00;64500.88;5011200;28;20034;-74
2022/09/19 08:35:16;;;;;;;1999.90;999.90;;;;;;;-144.65;100.00;64500.88;5010845;28;20046;-74
2022/09/19 08:37:42;;;;;;;1999.90;999.90;;;;;;;-144.65;100.00;64500.88;5010603;28;20045;-74
2022/09/19 08:40:16;;;;;;;1999.90;999.90;;;;;;;-144.65;100.00;64500.88;5010796;28;20449;-74
2022/09/19 08:42:59;;;;;;;1999.90;999.90;;;;;;;-144.65;100.00;64500.88;5010611;28;20025;-74
2022/09/19 08:45:33;;;;;;;1999.90;999.90;;;;;;;-144.65;100.00;64500.88;5010780;28;20058;-73
2022/09/19 08:48:04;;;;;;;1999.90;999.90;;;;;;;-144.65;100.00;64500.88;5010703;28;20442;-74
2022/09/19 08:50:34;;;;;;;1999.90;999.90;;;;;;;-144.65;100.00;64500.88;5010684;28;20026;-74
2022/09/19 08:53:04;;;;;;;1999.90;999.90;;;;;;;-144.65;100.00;64500.88;5010803;28;20057;-74
2022/09/19 08:55:33;;;;;;;1999.90;999.90;;;;;;;-144.65;100.00;64500.88;5010704;28;20022;-74
2022/09/19 08:58:27;;;;;;;1999.90;999.90;;;;;;;-144.65;100.00;64500.88;5013064;28;20037;-74
2022/09/19 09:00:54;;;;;;;1999.90;999.90;;;;;;;-144.65;100.00;64500.88;4993404;28;20077;-73
2022/09/19 09:03:28;;;;;;;1999.90;999.90;;;;;;;-144.65;100.00;64500.88;5022493;28;20029;-73
2022/09/19 09:06:04;;;;;;;1999.90;999.90;;;;;;;-144.65;100.00;64500.88;5024140;28;20022;-73
2022/09/19 09:08:38;;;;;;;1999.90;999.90;;;;;;;-144.65;100.00;64500.88;5021702;28;20076;-73
2022/09/19 09:11:07;;;;;;;;;;;;;;;-144.65;100.00;64500.88;5020964;28;20034;-73
2022/09/19 09:14:20;;;;;;;1999.90;999.90;;;;;;;-144.65;100.00;64500.88;5022347;28;19913;-73
2022/09/19 09:17:31;;;;;;;1999.90;999.90;;;;;;;-144.65;100.00;64500.88;5014366;28;20045;-72
2022/09/19 09:20:03;;;;;;;1999.90;999.90;;;;;;;-144.65;100.00;64500.88;4943618;29;20094;-71
2022/09/19 09:22:36;;;;;;;1999.90;999.90;;;;;;;-144.65;100.00;64500.88;4948319;29;20547;-73
2022/09/19 09:25:13;;;;;;;1999.90;999.90;;;;;;;-144.65;100.00;64500.88;4972817;28;20033;-72
2022/09/19 09:28:16;;;;;;;1999.90;999.90;;;;;;;-144.65;100.00;64500.88;5021407;28;20125;-72
2022/09/19 09:30:47;;;;;;;1999.90;999.90;;;;;;;-144.65;100.00;64500.88;5021942;28;20413;-73
2022/09/19 09:33:22;;;;;;;1999.90;999.90;;;;;;;-144.65;100.00;64500.88;5003643;28;20037;-73
2022/09/19 09:35:54;;;;;;;1999.90;999.90;;;;;;;-144.65;100.00;64500.88;5021697;28;20026;-72
2022/09/19 09:38:19;;;;;;;1999.90;999.90;;;;;;;-144.65;100.00;64500.88;4997250;28;20034;-72
2022/09/19 09:44:14;;;;;;;1999.90;999.90;;;;;;;-144.65;100.00;64500.88;5015422;28;20382;-73
2022/09/19 09:46:45;;;;;;;1999.90;999.90;;;;;;;-144.65;100.00;64500.88;5017269;28;20486;-73
2022/09/19 09:49:12;;;;;;;1999.90;999.90;;;;;;;-144.65;100.00;64500.88;5015864;28;20043;-71
2022/09/19 09:51:50;;;;;;;1999.90;999.90;;;;;;;-144.65;100.00;64500.88;5009399;28;20101;-73
2022/09/19 09:57:53;;;;;;;1999.90;999.90;;;;;;;-144.65;100.00;64500.88;5021911;28;20430;-72
2022/09/19 10:03:35;;;;;;;1999.90;999.90;;;;;;;-144.65;100.00;64500.88;5018616;28;20032;-73
2022/09/19 10:06:24;;;;;;;1999.90;999.90;;;;;;;-144.65;100.00;64500.88;4991398;28;20080;-72
2022/09/19 10:09:01;;;;;;;1999.90;999.90;;;;;;;-144.65;100.00;64500.88;5006996;28;20041;-72
2022/09/19 10:11:52;;;;;;;1999.90;999.90;;;;;;;-144.65;100.00;64500.88;5020444;28;20026;-73
2022/09/19 10:14:22;;;;;;;1999.90;999.90;;;;;;;-144.65;100.00;64500.88;5033062;28;20037;-73
2022/09/19 10:16:52;;;;;;;1999.90;999.90;;;;;;;-144.65;100.00;64500.88;5025896;28;20022;-73
2022/09/19 10:19:36;;;;;;;1999.90;999.90;;;;;;;-144.65;100.00;64500.88;5012388;28;20130;-73
2022/09/19 10:22:01;;;;;;;1999.90;999.90;;;;;;;-144.65;100.00;64500.88;5009220;28;20116;-73
2022/09/19 10:24:52;;;;;;;1999.90;999.90;;;;;;;-144.65;100.00;64500.88;5020928;28;20112;-73
2022/09/19 10:27:31;;;;;;;1999.90;999.90;;;;;;;-144.65;100.00;64500.88;5018450;28;20105;-71
2022/09/19 10:30:04;;;;;;;1999.90;999.90;;;;;;;-144.65;100.00;64500.88;5002044;28;20514;-73
2022/09/19 10:32:37;;;;;;;1999.90;999.90;;;;;;;-144.65;100.00;64500.88;5003724;28;20025;-72
2022/09/19 10:35:26;;;;;;;1999.90;999.90;;;;;;;-144.65;100.00;64500.88;5016845;28;20037;-73
2022/09/19 10:38:15;;;;;;;1999.90;999.90;;;;;;;-144.65;100.00;64500.88;5020331;28;20063;-73
2022/09/19 10:40:56;;;;;;;1999.90;999.90;;;;;;;-144.65;100.00;64500.88;5020597;28;20026;-73
2022/09/19 10:43:31;;;;;;;1999.90;999.90;;;;;;;-144.65;100.00;64500.88;5017092;28;20033;-74
2022/09/19 10:45:58;;;;;;;1999.90;999.90;;;;;;;-144.65;100.00;64500.88;5019690;28;20078;-73
2022/09/19 10:48:30;;;;;;;1999.90;999.90;;;;;;;-144.65;100.00;64500.88;5018290;28;20026;-73
2022/09/19 10:50:58;;;;;;;1999.90;999.90;;;;;;;-144.65;100.00;64500.88;5015782;28;20109;-73
2022/09/19 10:53:32;;;;;;;1999.90;999.90;;;;;;;-144.65;100.00;64500.88;5019658;28;20022;-74
2022/09/19 10:56:33;;;;;;;1999.90;999.90;;;;;;;-144.65;100.00;64500.88;5021814;28;20756;-74
2022/09/19 10:59:18;;;;;;;1999.90;999.90;;;;;;;-144.65;100.00;64500.88;5018794;28;20036;-74
2022/09/19 11:02:03;;;;;;;;;;;;;;;-144.65;100.00;64500.88;5016763;28;20022;-73
2022/09/19 11:04:28;;;;;;;1999.90;999.90;;;;;;;-144.65;100.00;64500.88;5020660;28;21310;-73
2022/09/19 11:07:02;;;;;;;1999.90;999.90;;;;;;;-144.65;100.00;64500.88;5011555;28;20398;-73
2022/09/19 11:09:36;;;;;;;1999.90;999.90;;;;;;;-144.65;100.00;64500.88;5011929;28;20379;-73